createdAt,value
2022-10-16T00:05:04.446Z,88.40
2022-10-16T00:15:09.657Z,88.01
2022-10-16T00:25:12.830Z,86.88
2022-10-16T00:35:17.351Z,86.00
2022-10-16T00:45:21.647Z,86.68
2022-10-16T00:55:25.534Z,87.65
2022-10-16T01:05:40.518Z,86.54
2022-10-16T01:15:58.931Z,86.90
2022-10-16T01:26:24.421Z,86.73
2022-10-16T01:36:34.779Z,86.48
2022-10-16T01:46:41.096Z,86.21
2022-10-16T01:56:43.774Z,90.35
2022-10-16T02:06:48.154Z,93.02
2022-10-16T02:16:50.446Z,92.68
2022-10-16T02:27:20.927Z,94.54
2022-10-16T02:37:24.174Z,94.08
2022-10-16T02:47:26.639Z,94.39
2022-10-16T02:57:30.769Z,94.64
2022-10-16T03:07:34.897Z,95.63
2022-10-16T03:17:39.310Z,96.53
2022-10-16T03:27:45.609Z,94.75
2022-10-16T03:37:47.766Z,94.44
2022-10-16T03:47:52.146Z,94.81
2022-10-16T03:57:56.519Z,94.23
2022-10-16T04:07:58.554Z,94.55
2022-10-16T04:18:03.142Z,95.36
2022-10-16T04:28:09.600Z,95.53
2022-10-16T04:38:11.925Z,95.23
2022-10-16T04:48:20.423Z,95.50
2022-10-16T04:58:24.987Z,95.92
2022-10-16T05:08:33.601Z,96.21
2022-10-16T05:18:35.993Z,97.00
2022-10-16T05:28:38.117Z,97.60
2022-10-16T05:38:45.055Z,98.08
2022-10-16T05:48:48.475Z,98.49
2022-10-16T05:58:50.470Z,94.59
2022-10-16T06:08:53.264Z,92.73
2022-10-16T06:18:57.030Z,87.51
2022-10-16T06:29:00.508Z,83.38
2022-10-16T06:39:02.554Z,80.13
2022-10-16T06:49:04.520Z,77.20
2022-10-16T06:59:11.581Z,75.01
2022-10-16T07:09:13.802Z,76.71
2022-10-16T07:19:23.414Z,81.32
2022-10-16T07:29:30.285Z,84.63
2022-10-16T07:39:37.892Z,87.58
2022-10-16T07:49:43.412Z,86.27
2022-10-16T07:59:45.482Z,80.61
2022-10-16T08:09:55.281Z,78.63
2022-10-16T08:19:57.423Z,73.37
2022-10-16T08:29:59.464Z,75.35
2022-10-16T08:40:05.893Z,76.07
2022-10-16T08:50:14.713Z,78.31
2022-10-16T09:00:17.687Z,77.95
2022-10-16T09:10:35.089Z,76.15
2022-10-16T09:21:02.972Z,74.17
2022-10-16T09:31:13.799Z,74.84
2022-10-16T09:41:24.051Z,73.57
2022-10-16T09:51:34.464Z,72.39
2022-10-16T10:01:39.519Z,72.50
2022-10-16T10:11:45.305Z,71.25
2022-10-16T10:21:54.327Z,72.09
2022-10-16T10:32:19.899Z,71.39
2022-10-16T10:42:33.295Z,70.56
2022-10-16T10:52:51.559Z,69.63
2022-10-16T11:03:31.323Z,71.33
2022-10-16T11:13:40.235Z,70.04
2022-10-16T11:23:49.953Z,69.92
2022-10-16T11:34:16.930Z,70.81
2022-10-16T11:44:31.005Z,70.59
2022-10-16T11:54:44.685Z,69.86
2022-10-16T12:04:57.702Z,69.85
2022-10-16T12:15:25.726Z,70.85
2022-10-16T12:25:47.243Z,71.29
2022-10-16T12:35:51.978Z,70.92
2022-10-16T12:46:23.646Z,71.54
2022-10-16T12:56:33.244Z,71.21
2022-10-16T13:06:48.106Z,71.46
2022-10-16T13:17:02.712Z,72.26
2022-10-16T13:27:14.893Z,72.42
2022-10-16T13:37:21.449Z,73.14
2022-10-16T13:47:25.037Z,73.69
2022-10-16T13:57:32.419Z,74.07
2022-10-16T14:07:40.119Z,74.46
2022-10-16T14:17:45.451Z,75.19
2022-10-16T14:28:05.437Z,75.83
2022-10-16T14:38:19.754Z,75.25
2022-10-16T14:48:24.610Z,75.75
2022-10-16T14:58:33.980Z,76.32
2022-10-16T15:08:38.291Z,76.53
2022-10-16T15:18:42.783Z,76.77
2022-10-16T15:28:49.661Z,76.77
2022-10-16T15:38:54.796Z,77.61
2022-10-16T15:48:58.053Z,78.06
2022-10-16T15:59:01.094Z,78.47
2022-10-16T16:09:05.799Z,79.41
2022-10-16T16:19:11.846Z,80.11
2022-10-16T16:29:16.340Z,81.59
2022-10-16T16:39:22.875Z,82.25
2022-10-16T16:49:24.980Z,83.05
2022-10-16T16:59:33.812Z,84.35
2022-10-16T17:09:36.468Z,85.14
2022-10-16T17:19:38.512Z,86.16
2022-10-16T17:29:40.519Z,87.65
2022-10-16T17:39:46.911Z,88.71
2022-10-16T17:49:51.426Z,89.66
2022-10-16T17:59:55.980Z,90.06
2022-10-16T18:10:10.602Z,90.52
2022-10-16T18:20:17.325Z,90.73
2022-10-16T18:30:22.035Z,91.22
2022-10-16T18:40:25.502Z,92.15
2022-10-16T18:50:34.637Z,93.30
2022-10-16T19:00:45.045Z,93.83
2022-10-16T19:10:48.958Z,95.49
2022-10-16T19:20:52.258Z,97.31
2022-10-16T19:30:56.882Z,97.69
2022-10-16T19:41:17.953Z,98.02
2022-10-16T19:51:20.491Z,98.00
2022-10-16T20:01:30.113Z,98.36
2022-10-16T20:11:35.844Z,99.21
2022-10-16T20:21:42.696Z,100.00
2022-10-16T20:31:44.782Z,100.00
2022-10-16T20:41:46.770Z,100.00
2022-10-16T20:51:56.667Z,100.00
2022-10-16T21:02:12.101Z,100.00
2022-10-16T21:12:16.263Z,100.00
2022-10-16T21:22:18.249Z,100.00
2022-10-16T21:32:22.580Z,100.00
2022-10-16T21:42:30.392Z,100.00
2022-10-16T21:52:32.909Z,100.00
2022-10-16T22:02:38.799Z,100.00
2022-10-16T22:12:40.832Z,100.00
2022-10-16T22:22:42.833Z,100.00
2022-10-16T22:32:47.031Z,100.00
2022-10-16T22:42:49.196Z,100.00
2022-10-16T22:52:56.161Z,100.00
2022-10-16T23:02:58.374Z,100.00
2022-10-16T23:13:00.429Z,100.00
2022-10-16T23:23:05.258Z,100.00
2022-10-16T23:33:07.507Z,100.00
2022-10-16T23:43:12.063Z,100.00
2022-10-16T23:53:14.738Z,100.00
